Аэропорт: Угольный. Анадырь

ICAO: UHMA

METAR:
2018/09/23 11:00
UHMA 231100Z 07002MPS 9999 OVC045 06/01 Q1009 R01/////// NOSIG RMK END R01/08002MPS QFE753/1004
METAR:
2018/09/23 09:25
TAF UHMA 230730Z 2309/2409 02003MPS 9999 SCT010 BKN030 
      TEMPO 2309/2409 31006MPS 4000 -SHRA BR SCT005 BKN020CB